Station Historical Data
Daily Summary for May 22, 2017 Units:  Both    English   Metric
« Previous Day
Next Day »
Daily Weekly Monthly Yearly Custom
  High: Low: Average:
Temperature: 61.9 °F /  16.6 °C 50.0 °F /  10 °C 57.8 °F /  14.3 °C
Dew Point: 57.1 °F /  13.9 °C 43.4 °F /  6.3 °C 50.2 °F /  10.1 °C
Humidity: 86% 58% 76%
Wind Speed: 19.0mph /  30.6km/h - 6.1mph /  9.8km/h
Wind Gust: 28.0mph /  45.1km/h - -
Wind- - SW
Pressure: 29.99 in /  1015.5 hPa 29.90 in /  1012.4 hPa -
Precipitation: 0.00 in /  0 mm    
Historical Graphs
 
 
Tabular Data for May 22, 2017
Time Temperature Dew Point Pressure Wind Wind Speed Wind Gust Humidity Rainfall Rate (Hourly)
00:00 60.7 °F /  15.9 °C 54.8 °F /  12.7 °C 29.94in /  1013.8hPa South 2.0mph /  3.2km/h 10.0mph /  16.1km/h 81% 0.00in /  0mm
00:05 60.6 °F /  15.9 °C 54.7 °F /  12.6 °C 29.94in /  1013.8hPa SSE 8.0mph /  12.9km/h 12.0mph /  19.3km/h 81% 0.00in /  0mm
00:10 60.5 °F /  15.8 °C 54.6 °F /  12.6 °C 29.94in /  1013.8hPa SSW 3.0mph /  4.8km/h 8.0mph /  12.9km/h 81% 0.00in /  0mm
00:15 60.5 °F /  15.8 °C 54.6 °F /  12.6 °C 29.94in /  1013.8hPa SSW 5.0mph /  8km/h 13.0mph /  20.9km/h 81% 0.00in /  0mm
00:20 60.7 °F /  15.9 °C 55.2 °F /  12.9 °C 29.94in /  1013.8hPa SSW 7.0mph /  11.3km/h 10.0mph /  16.1km/h 82% 0.00in /  0mm
00:25 60.8 °F /  16 °C 55.3 °F /  12.9 °C 29.93in /  1013.4hPa SSW 5.0mph /  8km/h 10.0mph /  16.1km/h 82% 0.00in /  0mm
00:30 60.9 °F /  16.1 °C 55.0 °F /  12.8 °C 29.93in /  1013.4hPa SSW 6.0mph /  9.7km/h 13.0mph /  20.9km/h 81% 0.00in /  0mm
00:35 61.0 °F /  16.1 °C 55.1 °F /  12.8 °C 29.93in /  1013.4hPa South 5.0mph /  8km/h 13.0mph /  20.9km/h 81% 0.00in /  0mm
00:40 61.3 °F /  16.3 °C 55.4 °F /  13 °C 29.93in /  1013.4hPa South 5.0mph /  8km/h 14.0mph /  22.5km/h 81% 0.00in /  0mm
00:45 61.3 °F /  16.3 °C 55.4 °F /  13 °C 29.93in /  1013.4hPa SSW 7.0mph /  11.3km/h 12.0mph /  19.3km/h 81% 0.00in /  0mm
00:50 61.3 °F /  16.3 °C 55.4 °F /  13 °C 29.93in /  1013.4hPa SSW 2.0mph /  3.2km/h 13.0mph /  20.9km/h 81% 0.00in /  0mm
00:55 61.2 °F /  16.2 °C 55.3 °F /  12.9 °C 29.92in /  1013.1hPa South 3.0mph /  4.8km/h 13.0mph /  20.9km/h 81% 0.00in /  0mm
01:00 61.1 °F /  16.2 °C 55.2 °F /  12.9 °C 29.93in /  1013.4hPa South 6.0mph /  9.7km/h 12.0mph /  19.3km/h 81% 0.00in /  0mm
01:05 60.9 °F /  16.1 °C 55.0 °F /  12.8 °C 29.93in /  1013.4hPa South 5.0mph /  8km/h 12.0mph /  19.3km/h 81% 0.00in /  0mm
01:10 60.9 °F /  16.1 °C 55.4 °F /  13 °C 29.93in /  1013.4hPa South 5.0mph /  8km/h 11.0mph /  17.7km/h 82% 0.00in /  0mm
01:15 60.9 °F /  16.1 °C 55.4 °F /  13 °C 29.93in /  1013.4hPa South 5.0mph /  8km/h 11.0mph /  17.7km/h 82% 0.00in /  0mm
01:20 60.9 °F /  16.1 °C 55.4 °F /  13 °C 29.93in /  1013.4hPa South 4.0mph /  6.4km/h 8.0mph /  12.9km/h 82% 0.00in /  0mm
01:25 61.0 °F /  16.1 °C 55.5 °F /  13.1 °C 29.92in /  1013.1hPa South 4.0mph /  6.4km/h 10.0mph /  16.1km/h 82% 0.00in /  0mm
01:30 61.1 °F /  16.2 °C 55.6 °F /  13.1 °C 29.93in /  1013.4hPa South 4.0mph /  6.4km/h 12.0mph /  19.3km/h 82% 0.00in /  0mm
01:35 61.0 °F /  16.1 °C 55.5 °F /  13.1 °C 29.92in /  1013.1hPa South 4.0mph /  6.4km/h 12.0mph /  19.3km/h 82% 0.00in /  0mm
01:40 61.0 °F /  16.1 °C 55.5 °F /  13.1 °C 29.92in /  1013.1hPa SSW 2.0mph /  3.2km/h 8.0mph /  12.9km/h 82% 0.00in /  0mm
01:45 60.9 °F /  16.1 °C 55.4 °F /  13 °C 29.92in /  1013.1hPa South 2.0mph /  3.2km/h 7.0mph /  11.3km/h 82% 0.00in /  0mm
01:50 60.9 °F /  16.1 °C 55.4 °F /  13 °C 29.92in /  1013.1hPa South 3.0mph /  4.8km/h 7.0mph /  11.3km/h 82% 0.00in /  0mm
01:55 61.0 °F /  16.1 °C 55.8 °F /  13.2 °C 29.92in /  1013.1hPa SSE 3.0mph /  4.8km/h 8.0mph /  12.9km/h 83% 0.00in /  0mm
02:00 61.1 °F /  16.2 °C 55.6 °F /  13.1 °C 29.92in /  1013.1hPa South 2.0mph /  3.2km/h 6.0mph /  9.7km/h 82% 0.00in /  0mm
02:05 61.1 °F /  16.2 °C 55.9 °F /  13.3 °C 29.92in /  1013.1hPa South 3.0mph /  4.8km/h 6.0mph /  9.7km/h 83% 0.00in /  0mm
02:10 61.2 °F /  16.2 °C 56.0 °F /  13.3 °C 29.92in /  1013.1hPa South 3.0mph /  4.8km/h 7.0mph /  11.3km/h 83% 0.00in /  0mm
02:15 61.3 °F /  16.3 °C 56.1 °F /  13.4 °C 29.93in /  1013.4hPa SSW 4.0mph /  6.4km/h 8.0mph /  12.9km/h 83% 0.00in /  0mm
02:20 61.4 °F /  16.3 °C 55.9 °F /  13.3 °C 29.93in /  1013.4hPa SSW 4.0mph /  6.4km/h 8.0mph /  12.9km/h 82% 0.00in /  0mm
02:25 61.5 °F /  16.4 °C 56.0 °F /  13.3 °C 29.92in /  1013.1hPa SSW 3.0mph /  4.8km/h 8.0mph /  12.9km/h 82% 0.00in /  0mm
02:30 61.6 °F /  16.4 °C 56.0 °F /  13.3 °C 29.92in /  1013.1hPa SSW 4.0mph /  6.4km/h 7.0mph /  11.3km/h 82% 0.00in /  0mm
02:35 61.6 °F /  16.4 °C 56.0 °F /  13.3 °C 29.92in /  1013.1hPa SSW 3.0mph /  4.8km/h 8.0mph /  12.9km/h 82% 0.00in /  0mm
02:40 61.7 °F /  16.5 °C 56.1 °F /  13.4 °C 29.92in /  1013.1hPa South 4.0mph /  6.4km/h 9.0mph /  14.5km/h 82% 0.00in /  0mm
02:45 61.6 °F /  16.4 °C 56.4 °F /  13.6 °C 29.92in /  1013.1hPa SW 4.0mph /  6.4km/h 10.0mph /  16.1km/h 83% 0.00in /  0mm
02:50 61.6 °F /  16.4 °C 56.4 °F /  13.6 °C 29.92in /  1013.1hPa SSE 6.0mph /  9.7km/h 10.0mph /  16.1km/h 83% 0.00in /  0mm
02:55 61.6 °F /  16.4 °C 56.7 °F /  13.7 °C 29.91in /  1012.8hPa South 4.0mph /  6.4km/h 10.0mph /  16.1km/h 84% 0.00in /  0mm
03:00 61.4 °F /  16.3 °C 56.5 °F /  13.6 °C 29.92in /  1013.1hPa SSW 1.0mph /  1.6km/h 9.0mph /  14.5km/h 84% 0.00in /  0mm
03:05 61.3 °F /  16.3 °C 56.8 °F /  13.8 °C 29.92in /  1013.1hPa South 4.0mph /  6.4km/h 9.0mph /  14.5km/h 85% 0.00in /  0mm
03:10 61.2 °F /  16.2 °C 56.7 °F /  13.7 °C 29.92in /  1013.1hPa South 4.0mph /  6.4km/h 9.0mph /  14.5km/h 85% 0.00in /  0mm
03:15 61.1 °F /  16.2 °C 56.6 °F /  13.7 °C 29.92in /  1013.1hPa SE 5.0mph /  8km/h 9.0mph /  14.5km/h 85% 0.00in /  0mm
03:20 61.0 °F /  16.1 °C 56.5 °F /  13.6 °C 29.91in /  1012.8hPa SSW 5.0mph /  8km/h 11.0mph /  17.7km/h 85% 0.00in /  0mm
03:25 60.9 °F /  16.1 °C 56.4 °F /  13.6 °C 29.91in /  1012.8hPa South 4.0mph /  6.4km/h 7.0mph /  11.3km/h 85% 0.00in /  0mm
03:30 60.9 °F /  16.1 °C 56.4 °F /  13.6 °C 29.91in /  1012.8hPa SSW 5.0mph /  8km/h 9.0mph /  14.5km/h 85% 0.00in /  0mm
03:35 60.9 °F /  16.1 °C 56.4 °F /  13.6 °C 29.91in /  1012.8hPa South 4.0mph /  6.4km/h 9.0mph /  14.5km/h 85% 0.00in /  0mm
03:40 61.0 °F /  16.1 °C 56.5 °F /  13.6 °C 29.91in /  1012.8hPa South 4.0mph /  6.4km/h 9.0mph /  14.5km/h 85% 0.00in /  0mm
03:45 61.0 °F /  16.1 °C 56.5 °F /  13.6 °C 29.91in /  1012.8hPa South 3.0mph /  4.8km/h 7.0mph /  11.3km/h 85% 0.00in /  0mm
03:50 61.1 °F /  16.2 °C 56.6 °F /  13.7 °C 29.91in /  1012.8hPa SSW 3.0mph /  4.8km/h 9.0mph /  14.5km/h 85% 0.00in /  0mm
03:55 61.3 °F /  16.3 °C 56.8 °F /  13.8 °C 29.91in /  1012.8hPa SSW 3.0mph /  4.8km/h 9.0mph /  14.5km/h 85% 0.00in /  0mm
04:00 61.4 °F /  16.3 °C 56.8 °F /  13.8 °C 29.91in /  1012.8hPa SSW 3.0mph /  4.8km/h 8.0mph /  12.9km/h 85% 0.00in /  0mm
04:05 61.5 °F /  16.4 °C 56.9 °F /  13.8 °C 29.91in /  1012.8hPa SSW 3.0mph /  4.8km/h 7.0mph /  11.3km/h 85% 0.00in /  0mm
04:10 61.6 °F /  16.4 °C 57.0 °F /  13.9 °C 29.91in /  1012.8hPa South 6.0mph /  9.7km/h 8.0mph /  12.9km/h 85% 0.00in /  0mm
04:15 61.7 °F /  16.5 °C 57.1 °F /  13.9 °C 29.91in /  1012.8hPa SSW 4.0mph /  6.4km/h 7.0mph /  11.3km/h 85% 0.00in /  0mm
04:20 61.6 °F /  16.4 °C 57.0 °F /  13.9 °C 29.91in /  1012.8hPa South 7.0mph /  11.3km/h 9.0mph /  14.5km/h 85% 0.00in /  0mm
04:25 61.6 °F /  16.4 °C 57.0 °F /  13.9 °C 29.91in /  1012.8hPa South 4.0mph /  6.4km/h 7.0mph /  11.3km/h 85% 0.00in /  0mm
04:30 61.4 °F /  16.3 °C 56.8 °F /  13.8 °C 29.91in /  1012.8hPa SSW 5.0mph /  8km/h 9.0mph /  14.5km/h 85% 0.00in /  0mm
04:35 61.4 °F /  16.3 °C 56.8 °F /  13.8 °C 29.91in /  1012.8hPa SSW 3.0mph /  4.8km/h 9.0mph /  14.5km/h 85% 0.00in /  0mm
04:40 61.4 °F /  16.3 °C 56.8 °F /  13.8 °C 29.91in /  1012.8hPa SSW 3.0mph /  4.8km/h 8.0mph /  12.9km/h 85% 0.00in /  0mm
04:45 61.6 °F /  16.4 °C 57.0 °F /  13.9 °C 29.91in /  1012.8hPa SSW 4.0mph /  6.4km/h 10.0mph /  16.1km/h 85% 0.00in /  0mm
04:50 61.6 °F /  16.4 °C 57.0 °F /  13.9 °C 29.91in /  1012.8hPa SSW 4.0mph /  6.4km/h 10.0mph /  16.1km/h 85% 0.00in /  0mm
04:55 61.6 °F /  16.4 °C 57.0 °F /  13.9 °C 29.91in /  1012.8hPa SW 2.0mph /  3.2km/h 8.0mph /  12.9km/h 85% 0.00in /  0mm
05:00 61.7 °F /  16.5 °C 57.1 °F /  13.9 °C 29.90in /  1012.4hPa SSW 2.0mph /  3.2km/h 6.0mph /  9.7km/h 85% 0.00in /  0mm
05:05 61.7 °F /  16.5 °C 57.1 °F /  13.9 °C 29.91in /  1012.8hPa SSW 3.0mph /  4.8km/h 7.0mph /  11.3km/h 85% 0.00in /  0mm
05:10 61.6 °F /  16.4 °C 57.0 °F /  13.9 °C 29.91in /  1012.8hPa SSW 3.0mph /  4.8km/h 7.0mph /  11.3km/h 85% 0.00in /  0mm
05:15 61.5 °F /  16.4 °C 56.9 °F /  13.8 °C 29.91in /  1012.8hPa SSW 4.0mph /  6.4km/h 9.0mph /  14.5km/h 85% 0.00in /  0mm
05:20 61.5 °F /  16.4 °C 56.9 °F /  13.8 °C 29.90in /  1012.4hPa SSW 3.0mph /  4.8km/h 9.0mph /  14.5km/h 85% 0.00in /  0mm
05:25 61.5 °F /  16.4 °C 56.9 °F /  13.8 °C 29.90in /  1012.4hPa SSW 5.0mph /  8km/h 6.0mph /  9.7km/h 85% 0.00in /  0mm
05:30 61.6 °F /  16.4 °C 57.0 °F /  13.9 °C 29.90in /  1012.4hPa South 3.0mph /  4.8km/h 5.0mph /  8km/h 85% 0.00in /  0mm
05:35 61.6 °F /  16.4 °C 57.0 °F /  13.9 °C 29.91in /  1012.8hPa SSW 3.0mph /  4.8km/h 8.0mph /  12.9km/h 85% 0.00in /  0mm
05:40 61.6 °F /  16.4 °C 57.0 °F /  13.9 °C 29.91in /  1012.8hPa SSW 3.0mph /  4.8km/h 8.0mph /  12.9km/h 85% 0.00in /  0mm
05:45 61.7 °F /  16.5 °C 56.8 °F /  13.8 °C 29.91in /  1012.8hPa SE 5.0mph /  8km/h 9.0mph /  14.5km/h 84% 0.00in /  0mm
05:50 61.7 °F /  16.5 °C 56.8 °F /  13.8 °C 29.91in /  1012.8hPa SSW 2.0mph /  3.2km/h 9.0mph /  14.5km/h 84% 0.00in /  0mm
05:55 61.6 °F /  16.4 °C 56.7 °F /  13.7 °C 29.91in /  1012.8hPa SSW 1.0mph /  1.6km/h 5.0mph /  8km/h 84% 0.00in /  0mm
06:00 61.6 °F /  16.4 °C 56.7 °F /  13.7 °C 29.91in /  1012.8hPa SW 4.0mph /  6.4km/h 9.0mph /  14.5km/h 84% 0.00in /  0mm
06:05 61.6 °F /  16.4 °C 56.7 °F /  13.7 °C 29.91in /  1012.8hPa SSW 3.0mph /  4.8km/h 9.0mph /  14.5km/h 84% 0.00in /  0mm
06:10 61.6 °F /  16.4 °C 56.7 °F /  13.7 °C 29.91in /  1012.8hPa SSW 4.0mph /  6.4km/h 8.0mph /  12.9km/h 84% 0.00in /  0mm
06:15 61.6 °F /  16.4 °C 56.7 °F /  13.7 °C 29.91in /  1012.8hPa SSW 3.0mph /  4.8km/h 8.0mph /  12.9km/h 84% 0.00in /  0mm
06:20 61.7 °F /  16.5 °C 56.8 °F /  13.8 °C 29.91in /  1012.8hPa SSW 3.0mph /  4.8km/h 7.0mph /  11.3km/h 84% 0.00in /  0mm
06:25 61.6 °F /  16.4 °C 56.7 °F /  13.7 °C 29.91in /  1012.8hPa SSW 3.0mph /  4.8km/h 8.0mph /  12.9km/h 84% 0.00in /  0mm
06:30 61.7 °F /  16.5 °C 56.8 °F /  13.8 °C 29.91in /  1012.8hPa WSW 4.0mph /  6.4km/h 7.0mph /  11.3km/h 84% 0.00in /  0mm
06:35 61.7 °F /  16.5 °C 56.8 °F /  13.8 °C 29.92in /  1013.1hPa SSW 3.0mph /  4.8km/h 7.0mph /  11.3km/h 84% 0.00in /  0mm
06:40 61.8 °F /  16.6 °C 56.9 °F /  13.8 °C 29.91in /  1012.8hPa SSW 3.0mph /  4.8km/h 7.0mph /  11.3km/h 84% 0.00in /  0mm
06:45 61.8 °F /  16.6 °C 56.9 °F /  13.8 °C 29.91in /  1012.8hPa SW 3.0mph /  4.8km/h 6.0mph /  9.7km/h 84% 0.00in /  0mm
06:50 61.9 °F /  16.6 °C 57.0 °F /  13.9 °C 29.91in /  1012.8hPa SW 4.0mph /  6.4km/h 8.0mph /  12.9km/h 84% 0.00in /  0mm
06:55 61.9 °F /  16.6 °C 57.0 °F /  13.9 °C 29.92in /  1013.1hPa SSW 4.0mph /  6.4km/h 9.0mph /  14.5km/h 84% 0.00in /  0mm
07:00 61.9 °F /  16.6 °C 57.0 °F /  13.9 °C 29.91in /  1012.8hPa Calm   7.0mph /  11.3km/h 84% 0.00in /  0mm
07:05 61.8 °F /  16.6 °C 56.9 °F /  13.8 °C 29.91in /  1012.8hPa SW 6.0mph /  9.7km/h 9.0mph /  14.5km/h 84% 0.00in /  0mm
07:10 61.8 °F /  16.6 °C 56.9 °F /  13.8 °C 29.91in /  1012.8hPa SSW 3.0mph /  4.8km/h 11.0mph /  17.7km/h 84% 0.00in /  0mm
07:15 61.8 °F /  16.6 °C 56.9 °F /  13.8 °C 29.91in /  1012.8hPa SSW 3.0mph /  4.8km/h 11.0mph /  17.7km/h 84% 0.00in /  0mm
07:20 61.9 °F /  16.6 °C 57.0 °F /  13.9 °C 29.91in /  1012.8hPa SSW 3.0mph /  4.8km/h 10.0mph /  16.1km/h 84% 0.00in /  0mm
07:25 61.9 °F /  16.6 °C 57.0 °F /  13.9 °C 29.91in /  1012.8hPa SW 4.0mph /  6.4km/h 11.0mph /  17.7km/h 84% 0.00in /  0mm
07:30 61.9 °F /  16.6 °C 57.0 °F /  13.9 °C 29.91in /  1012.8hPa SW 4.0mph /  6.4km/h 11.0mph /  17.7km/h 84% 0.00in /  0mm
07:35 61.7 °F /  16.5 °C 56.8 °F /  13.8 °C 29.91in /  1012.8hPa SW 4.0mph /  6.4km/h 8.0mph /  12.9km/h 84% 0.00in /  0mm
07:40 61.5 °F /  16.4 °C 56.3 °F /  13.5 °C 29.91in /  1012.8hPa WNW 3.0mph /  4.8km/h 8.0mph /  12.9km/h 83% 0.00in /  0mm
07:45 60.9 °F /  16.1 °C 56.0 °F /  13.3 °C 29.92in /  1013.1hPa West 8.0mph /  12.9km/h 9.0mph /  14.5km/h 84% 0.00in /  0mm
07:50 60.3 °F /  15.7 °C 55.4 °F /  13 °C 29.92in /  1013.1hPa WSW 7.0mph /  11.3km/h 9.0mph /  14.5km/h 84% 0.00in /  0mm
07:55 59.7 °F /  15.4 °C 55.2 °F /  12.9 °C 29.92in /  1013.1hPa WSW 7.0mph /  11.3km/h 9.0mph /  14.5km/h 85% 0.00in /  0mm
08:00 59.3 °F /  15.2 °C 54.8 °F /  12.7 °C 29.92in /  1013.1hPa SSW 2.0mph /  3.2km/h 11.0mph /  17.7km/h 85% 0.00in /  0mm
08:05 59.3 °F /  15.2 °C 54.8 °F /  12.7 °C 29.92in /  1013.1hPa West 4.0mph /  6.4km/h 7.0mph /  11.3km/h 85% 0.00in /  0mm
08:10 59.2 °F /  15.1 °C 54.7 °F /  12.6 °C 29.92in /  1013.1hPa WSW 4.0mph /  6.4km/h 11.0mph /  17.7km/h 85% 0.00in /  0mm
08:15 59.1 °F /  15.1 °C 54.6 °F /  12.6 °C 29.92in /  1013.1hPa SSW 6.0mph /  9.7km/h 10.0mph /  16.1km/h 85% 0.00in /  0mm
08:20 58.9 °F /  14.9 °C 54.4 °F /  12.4 °C 29.92in /  1013.1hPa SW 5.0mph /  8km/h 13.0mph /  20.9km/h 85% 0.00in /  0mm
08:25 58.2 °F /  14.6 °C 53.7 °F /  12.1 °C 29.93in /  1013.4hPa SSW 4.0mph /  6.4km/h 12.0mph /  19.3km/h 85% 0.00in /  0mm
08:30 57.9 °F /  14.4 °C 53.7 °F /  12.1 °C 29.92in /  1013.1hPa South 6.0mph /  9.7km/h 10.0mph /  16.1km/h 86% 0.00in /  0mm
08:35 57.7 °F /  14.3 °C 53.5 °F /  11.9 °C 29.93in /  1013.4hPa WSW 4.0mph /  6.4km/h 10.0mph /  16.1km/h 86% 0.00in /  0mm
08:40 57.6 °F /  14.2 °C 53.4 °F /  11.9 °C 29.92in /  1013.1hPa SW 5.0mph /  8km/h 12.0mph /  19.3km/h 86% 0.00in /  0mm
08:45 57.6 °F /  14.2 °C 53.4 °F /  11.9 °C 29.92in /  1013.1hPa SW 4.0mph /  6.4km/h 12.0mph /  19.3km/h 86% 0.00in /  0mm
08:50 57.8 °F /  14.3 °C 53.6 °F /  12 °C 29.93in /  1013.4hPa SSW 5.0mph /  8km/h 9.0mph /  14.5km/h 86% 0.00in /  0mm
08:55 57.5 °F /  14.2 °C 53.0 °F /  11.7 °C 29.93in /  1013.4hPa WSW 4.0mph /  6.4km/h 13.0mph /  20.9km/h 85% 0.00in /  0mm
09:00 57.1 °F /  13.9 °C 52.6 °F /  11.4 °C 29.93in /  1013.4hPa SW 7.0mph /  11.3km/h 12.0mph /  19.3km/h 85% 0.00in /  0mm
09:05 57.0 °F /  13.9 °C 52.5 °F /  11.4 °C 29.93in /  1013.4hPa SW 11.0mph /  17.7km/h 18.0mph /  29km/h 85% 0.00in /  0mm
09:10 57.0 °F /  13.9 °C 52.2 °F /  11.2 °C 29.93in /  1013.4hPa SW 8.0mph /  12.9km/h 18.0mph /  29km/h 84% 0.00in /  0mm
09:15 57.0 °F /  13.9 °C 51.9 °F /  11.1 °C 29.93in /  1013.4hPa SSW 7.0mph /  11.3km/h 17.0mph /  27.4km/h 83% 0.00in /  0mm
09:20 57.1 °F /  13.9 °C 52.0 °F /  11.1 °C 29.93in /  1013.4hPa SW 10.0mph /  16.1km/h 18.0mph /  29km/h 83% 0.00in /  0mm
09:25 57.3 °F /  14.1 °C 52.2 °F /  11.2 °C 29.93in /  1013.4hPa SW 14.0mph /  22.5km/h 14.0mph /  22.5km/h 83% 0.00in /  0mm
09:30 57.6 °F /  14.2 °C 52.1 °F /  11.2 °C 29.93in /  1013.4hPa SW 7.0mph /  11.3km/h 20.0mph /  32.2km/h 82% 0.00in /  0mm
09:35 57.9 °F /  14.4 °C 52.4 °F /  11.3 °C 29.93in /  1013.4hPa SSW 5.0mph /  8km/h 19.0mph /  30.6km/h 82% 0.00in /  0mm
09:40 58.4 °F /  14.7 °C 52.3 °F /  11.3 °C 29.93in /  1013.4hPa SW 8.0mph /  12.9km/h 19.0mph /  30.6km/h 80% 0.00in /  0mm
09:45 57.8 °F /  14.3 °C 51.7 °F /  10.9 °C 29.93in /  1013.4hPa SW 8.0mph /  12.9km/h 18.0mph /  29km/h 80% 0.00in /  0mm
09:50 57.6 °F /  14.2 °C 51.8 °F /  11 °C 29.93in /  1013.4hPa SW 9.0mph /  14.5km/h 18.0mph /  29km/h 81% 0.00in /  0mm
09:55 57.7 °F /  14.3 °C 51.6 °F /  10.9 °C 29.93in /  1013.4hPa SW 8.0mph /  12.9km/h 21.0mph /  33.8km/h 80% 0.00in /  0mm
10:00 57.7 °F /  14.3 °C 51.6 °F /  10.9 °C 29.93in /  1013.4hPa SW 8.0mph /  12.9km/h 21.0mph /  33.8km/h 80% 0.00in /  0mm
10:05 58.2 °F /  14.6 °C 51.7 °F /  10.9 °C 29.93in /  1013.4hPa SW 18.0mph /  29km/h 18.0mph /  29km/h 79% 0.00in /  0mm
10:10 58.2 °F /  14.6 °C 51.4 °F /  10.8 °C 29.93in /  1013.4hPa SW 8.0mph /  12.9km/h 18.0mph /  29km/h 78% 0.00in /  0mm
10:15 57.7 °F /  14.3 °C 50.9 °F /  10.5 °C 29.94in /  1013.8hPa SW 9.0mph /  14.5km/h 18.0mph /  29km/h 78% 0.00in /  0mm
10:20 57.7 °F /  14.3 °C 50.9 °F /  10.5 °C 29.94in /  1013.8hPa WSW 6.0mph /  9.7km/h 13.0mph /  20.9km/h 78% 0.00in /  0mm
10:25 57.8 °F /  14.3 °C 51.0 °F /  10.6 °C 29.94in /  1013.8hPa West 7.0mph /  11.3km/h 15.0mph /  24.1km/h 78% 0.00in /  0mm
10:30 58.7 °F /  14.8 °C 51.5 °F /  10.8 °C 29.94in /  1013.8hPa WSW 12.0mph /  19.3km/h 19.0mph /  30.6km/h 77% 0.00in /  0mm
10:35 58.1 °F /  14.5 °C 50.6 °F /  10.3 °C 29.94in /  1013.8hPa SW 11.0mph /  17.7km/h 18.0mph /  29km/h 76% 0.00in /  0mm
10:40 57.8 °F /  14.3 °C 50.6 °F /  10.3 °C 29.94in /  1013.8hPa WSW 10.0mph /  16.1km/h 18.0mph /  29km/h 77% 0.00in /  0mm
10:45 57.9 °F /  14.4 °C 50.7 °F /  10.4 °C 29.94in /  1013.8hPa WSW 9.0mph /  14.5km/h 19.0mph /  30.6km/h 77% 0.00in /  0mm
10:50 58.4 °F /  14.7 °C 50.9 °F /  10.5 °C 29.95in /  1014.1hPa WSW 9.0mph /  14.5km/h 19.0mph /  30.6km/h 76% 0.00in /  0mm
10:55 58.3 °F /  14.6 °C 51.1 °F /  10.6 °C 29.95in /  1014.1hPa WSW 9.0mph /  14.5km/h 17.0mph /  27.4km/h 77% 0.00in /  0mm
11:00 58.4 °F /  14.7 °C 50.9 °F /  10.5 °C 29.95in /  1014.1hPa WSW 7.0mph /  11.3km/h 16.0mph /  25.7km/h 76% 0.00in /  0mm
11:05 58.4 °F /  14.7 °C 50.9 °F /  10.5 °C 29.96in /  1014.4hPa WSW 13.0mph /  20.9km/h 25.0mph /  40.2km/h 76% 0.00in /  0mm
11:10 57.7 °F /  14.3 °C 50.2 °F /  10.1 °C 29.96in /  1014.4hPa West 8.0mph /  12.9km/h 22.0mph /  35.4km/h 76% 0.00in /  0mm
11:15 57.5 °F /  14.2 °C 50.0 °F /  10 °C 29.96in /  1014.4hPa SW 11.0mph /  17.7km/h 22.0mph /  35.4km/h 76% 0.00in /  0mm
11:20 57.0 °F /  13.9 °C 49.9 °F /  9.9 °C 29.96in /  1014.4hPa WSW 10.0mph /  16.1km/h 21.0mph /  33.8km/h 77% 0.00in /  0mm
11:25 56.2 °F /  13.4 °C 49.1 °F /  9.5 °C 29.96in /  1014.4hPa SW 10.0mph /  16.1km/h 21.0mph /  33.8km/h 77% 0.00in /  0mm
11:30 55.8 °F /  13.2 °C 48.7 °F /  9.3 °C 29.97in /  1014.8hPa WSW 11.0mph /  17.7km/h 21.0mph /  33.8km/h 77% 0.00in /  0mm
11:35 55.7 °F /  13.2 °C 48.6 °F /  9.2 °C 29.96in /  1014.4hPa South 6.0mph /  9.7km/h 20.0mph /  32.2km/h 77% 0.00in /  0mm
11:40 55.9 °F /  13.3 °C 49.1 °F /  9.5 °C 29.96in /  1014.4hPa West 9.0mph /  14.5km/h 16.0mph /  25.7km/h 78% 0.00in /  0mm
11:45 56.2 °F /  13.4 °C 48.4 °F /  9.1 °C 29.96in /  1014.4hPa WSW 9.0mph /  14.5km/h 17.0mph /  27.4km/h 75% 0.00in /  0mm
11:50 55.8 °F /  13.2 °C 48.3 °F /  9.1 °C 29.96in /  1014.4hPa WSW 11.0mph /  17.7km/h 20.0mph /  32.2km/h 76% 0.00in /  0mm
11:55 55.0 °F /  12.8 °C 47.9 °F /  8.8 °C 29.96in /  1014.4hPa SW 4.0mph /  6.4km/h 21.0mph /  33.8km/h 77% 0.00in /  0mm
12:00 55.1 °F /  12.8 °C 48.0 °F /  8.9 °C 29.96in /  1014.4hPa WSW 6.0mph /  9.7km/h 19.0mph /  30.6km/h 77% 0.00in /  0mm
12:05 54.6 °F /  12.6 °C 47.5 °F /  8.6 °C 29.97in /  1014.8hPa WSW 16.0mph /  25.7km/h 22.0mph /  35.4km/h 77% 0.00in /  0mm
12:10 54.5 °F /  12.5 °C 47.8 °F /  8.8 °C 29.97in /  1014.8hPa NW 11.0mph /  17.7km/h 19.0mph /  30.6km/h 78% 0.00in /  0mm
12:15 55.1 °F /  12.8 °C 48.4 °F /  9.1 °C 29.97in /  1014.8hPa WSW 10.0mph /  16.1km/h 19.0mph /  30.6km/h 78% 0.00in /  0mm
12:20 55.3 °F /  12.9 °C 47.9 °F /  8.8 °C 29.97in /  1014.8hPa WSW 7.0mph /  11.3km/h 17.0mph /  27.4km/h 76% 0.00in /  0mm
12:25 55.7 °F /  13.2 °C 47.9 °F /  8.8 °C 29.97in /  1014.8hPa WSW 8.0mph /  12.9km/h 18.0mph /  29km/h 75% 0.00in /  0mm
12:30 56.3 °F /  13.5 °C 47.8 °F /  8.8 °C 29.97in /  1014.8hPa WSW 8.0mph /  12.9km/h 18.0mph /  29km/h 73% 0.00in /  0mm
12:35 57.3 °F /  14.1 °C 49.4 °F /  9.7 °C 29.97in /  1014.8hPa WSW 8.0mph /  12.9km/h 16.0mph /  25.7km/h 75% 0.00in /  0mm
12:40 57.8 °F /  14.3 °C 48.1 °F /  8.9 °C 29.97in /  1014.8hPa WSW 8.0mph /  12.9km/h 17.0mph /  27.4km/h 70% 0.00in /  0mm
12:45 56.5 °F /  13.6 °C 47.2 °F /  8.4 °C 29.97in /  1014.8hPa West 5.0mph /  8km/h 23.0mph /  37km/h 71% 0.00in /  0mm
12:50 56.6 °F /  13.7 °C 48.0 °F /  8.9 °C 29.98in /  1015.1hPa WSW 12.0mph /  19.3km/h 20.0mph /  32.2km/h 73% 0.00in /  0mm
12:55 56.7 °F /  13.7 °C 48.1 °F /  8.9 °C 29.98in /  1015.1hPa SSW 16.0mph /  25.7km/h 24.0mph /  38.6km/h 73% 0.00in /  0mm
13:00 56.2 °F /  13.4 °C 47.7 °F /  8.7 °C 29.97in /  1014.8hPa West 8.0mph /  12.9km/h 18.0mph /  29km/h 73% 0.00in /  0mm
13:05 56.5 °F /  13.6 °C 48.3 °F /  9.1 °C 29.97in /  1014.8hPa WSW 17.0mph /  27.4km/h 20.0mph /  32.2km/h 74% 0.00in /  0mm
13:10 56.5 °F /  13.6 °C 47.9 °F /  8.8 °C 29.97in /  1014.8hPa SW 17.0mph /  27.4km/h 27.0mph /  43.5km/h 73% 0.00in /  0mm
13:15 56.2 °F /  13.4 °C 47.7 °F /  8.7 °C 29.97in /  1014.8hPa WSW 12.0mph /  19.3km/h 27.0mph /  43.5km/h 73% 0.00in /  0mm
13:20 56.6 °F /  13.7 °C 47.7 °F /  8.7 °C 29.97in /  1014.8hPa WSW 12.0mph /  19.3km/h 23.0mph /  37km/h 72% 0.00in /  0mm
13:25 57.1 °F /  13.9 °C 48.2 °F /  9 °C 29.97in /  1014.8hPa SW 11.0mph /  17.7km/h 23.0mph /  37km/h 72% 0.00in /  0mm
13:30 57.6 °F /  14.2 °C 48.6 °F /  9.2 °C 29.97in /  1014.8hPa SW 11.0mph /  17.7km/h 22.0mph /  35.4km/h 72% 0.00in /  0mm
13:35 57.7 °F /  14.3 °C 48.4 °F /  9.1 °C 29.97in /  1014.8hPa WSW 11.0mph /  17.7km/h 22.0mph /  35.4km/h 71% 0.00in /  0mm
13:40 57.6 °F /  14.2 °C 48.3 °F /  9.1 °C 29.96in /  1014.4hPa SSW 7.0mph /  11.3km/h 22.0mph /  35.4km/h 71% 0.00in /  0mm
13:45 57.3 °F /  14.1 °C 47.6 °F /  8.7 °C 29.96in /  1014.4hPa SW 12.0mph /  19.3km/h 25.0mph /  40.2km/h 70% 0.00in /  0mm
13:50 57.3 °F /  14.1 °C 47.2 °F /  8.4 °C 29.97in /  1014.8hPa SW 14.0mph /  22.5km/h 23.0mph /  37km/h 69% 0.00in /  0mm
13:55 56.8 °F /  13.8 °C 47.1 °F /  8.4 °C 29.97in /  1014.8hPa West 19.0mph /  30.6km/h 19.0mph /  30.6km/h 70% 0.00in /  0mm
14:00 56.5 °F /  13.6 °C 47.6 °F /  8.7 °C 29.97in /  1014.8hPa SW 15.0mph /  24.1km/h 21.0mph /  33.8km/h 72% 0.00in /  0mm
14:05 56.1 °F /  13.4 °C 46.8 °F /  8.2 °C 29.97in /  1014.8hPa West 5.0mph /  8km/h 19.0mph /  30.6km/h 71% 0.00in /  0mm
14:10 56.7 °F /  13.7 °C 47.0 °F /  8.3 °C 29.98in /  1015.1hPa West 11.0mph /  17.7km/h 21.0mph /  33.8km/h 70% 0.00in /  0mm
14:15 57.2 °F /  14 °C 46.7 °F /  8.2 °C 29.98in /  1015.1hPa WSW 11.0mph /  17.7km/h 24.0mph /  38.6km/h 68% 0.00in /  0mm
14:20 57.1 °F /  13.9 °C 46.2 °F /  7.9 °C 29.97in /  1014.8hPa WSW 12.0mph /  19.3km/h 24.0mph /  38.6km/h 67% 0.00in /  0mm
14:25 57.8 °F /  14.3 °C 47.7 °F /  8.7 °C 29.97in /  1014.8hPa WSW 12.0mph /  19.3km/h 22.0mph /  35.4km/h 69% 0.00in /  0mm
14:30 58.6 °F /  14.8 °C 46.9 °F /  8.3 °C 29.97in /  1014.8hPa WSW 9.0mph /  14.5km/h 22.0mph /  35.4km/h 65% 0.00in /  0mm
14:35 58.3 °F /  14.6 °C 45.8 °F /  7.7 °C 29.97in /  1014.8hPa WSW 9.0mph /  14.5km/h 21.0mph /  33.8km/h 63% 0.00in /  0mm
14:40 58.0 °F /  14.4 °C 45.5 °F /  7.5 °C 29.97in /  1014.8hPa WSW 8.0mph /  12.9km/h 22.0mph /  35.4km/h 63% 0.00in /  0mm
14:45 57.9 °F /  14.4 °C 45.8 °F /  7.7 °C 29.97in /  1014.8hPa WSW 13.0mph /  20.9km/h 24.0mph /  38.6km/h 64% 0.00in /  0mm
14:50 57.8 °F /  14.3 °C 45.7 °F /  7.6 °C 29.98in /  1015.1hPa WSW 12.0mph /  19.3km/h 24.0mph /  38.6km/h 64% 0.00in /  0mm
14:55 58.3 °F /  14.6 °C 47.8 °F /  8.8 °C 29.98in /  1015.1hPa WSW 11.0mph /  17.7km/h 22.0mph /  35.4km/h 68% 0.00in /  0mm
15:00 58.7 °F /  14.8 °C 46.5 °F /  8.1 °C 29.98in /  1015.1hPa WSW 8.0mph /  12.9km/h 20.0mph /  32.2km/h 64% 0.00in /  0mm
15:05 58.6 °F /  14.8 °C 47.3 °F /  8.5 °C 29.97in /  1014.8hPa SSW 12.0mph /  19.3km/h 23.0mph /  37km/h 66% 0.00in /  0mm
15:10 58.9 °F /  14.9 °C 47.2 °F /  8.4 °C 29.98in /  1015.1hPa SW 7.0mph /  11.3km/h 19.0mph /  30.6km/h 65% 0.00in /  0mm
15:15 58.0 °F /  14.4 °C 45.5 °F /  7.5 °C 29.98in /  1015.1hPa WSW 11.0mph /  17.7km/h 23.0mph /  37km/h 63% 0.00in /  0mm
15:20 58.3 °F /  14.6 °C 46.2 °F /  7.9 °C 29.98in /  1015.1hPa WSW 11.0mph /  17.7km/h 28.0mph /  45.1km/h 64% 0.00in /  0mm
15:25 57.8 °F /  14.3 °C 46.5 °F /  8.1 °C 29.98in /  1015.1hPa WSW 11.0mph /  17.7km/h 28.0mph /  45.1km/h 66% 0.00in /  0mm
15:30 57.7 °F /  14.3 °C 45.6 °F /  7.6 °C 29.98in /  1015.1hPa West 14.0mph /  22.5km/h 25.0mph /  40.2km/h 64% 0.00in /  0mm
15:35 57.8 °F /  14.3 °C 46.5 °F /  8.1 °C 29.98in /  1015.1hPa West 7.0mph /  11.3km/h 18.0mph /  29km/h 66% 0.00in /  0mm
15:40 58.0 °F /  14.4 °C 46.7 °F /  8.2 °C 29.98in /  1015.1hPa WNW 9.0mph /  14.5km/h 20.0mph /  32.2km/h 66% 0.00in /  0mm
15:45 57.6 °F /  14.2 °C 46.3 °F /  7.9 °C 29.98in /  1015.1hPa SW 16.0mph /  25.7km/h 21.0mph /  33.8km/h 66% 0.00in /  0mm
15:50 57.5 °F /  14.2 °C 46.2 °F /  7.9 °C 29.98in /  1015.1hPa WSW 11.0mph /  17.7km/h 22.0mph /  35.4km/h 66% 0.00in /  0mm
15:55 57.0 °F /  13.9 °C 46.1 °F /  7.8 °C 29.98in /  1015.1hPa SW 11.0mph /  17.7km/h 24.0mph /  38.6km/h 67% 0.00in /  0mm
16:00 57.3 °F /  14.1 °C 46.0 °F /  7.8 °C 29.98in /  1015.1hPa West 14.0mph /  22.5km/h 17.0mph /  27.4km/h 66% 0.00in /  0mm
16:05 57.7 °F /  14.3 °C 46.0 °F /  7.8 °C 29.98in /  1015.1hPa WSW 7.0mph /  11.3km/h 18.0mph /  29km/h 65% 0.00in /  0mm
16:10 57.9 °F /  14.4 °C 45.8 °F /  7.7 °C 29.98in /  1015.1hPa SW 6.0mph /  9.7km/h 20.0mph /  32.2km/h 64% 0.00in /  0mm
16:15 58.3 °F /  14.6 °C 46.2 °F /  7.9 °C 29.98in /  1015.1hPa West 7.0mph /  11.3km/h 20.0mph /  32.2km/h 64% 0.00in /  0mm
16:20 57.5 °F /  14.2 °C 45.0 °F /  7.2 °C 29.98in /  1015.1hPa WSW 10.0mph /  16.1km/h 21.0mph /  33.8km/h 63% 0.00in /  0mm
16:25 57.7 °F /  14.3 °C 45.2 °F /  7.3 °C 29.98in /  1015.1hPa WSW 11.0mph /  17.7km/h 21.0mph /  33.8km/h 63% 0.00in /  0mm
16:30 58.3 °F /  14.6 °C 45.8 °F /  7.7 °C 29.98in /  1015.1hPa WSW 10.0mph /  16.1km/h 21.0mph /  33.8km/h 63% 0.00in /  0mm
16:35 58.2 °F /  14.6 °C 44.8 °F /  7.1 °C 29.98in /  1015.1hPa WSW 12.0mph /  19.3km/h 22.0mph /  35.4km/h 61% 0.00in /  0mm
16:40 58.2 °F /  14.6 °C 44.8 °F /  7.1 °C 29.98in /  1015.1hPa SW 16.0mph /  25.7km/h 19.0mph /  30.6km/h 61% 0.00in /  0mm
16:45 57.6 °F /  14.2 °C 43.8 °F /  6.6 °C 29.97in /  1014.8hPa WSW 4.0mph /  6.4km/h 19.0mph /  30.6km/h 60% 0.00in /  0mm
16:50 58.1 °F /  14.5 °C 44.7 °F /  7.1 °C 29.97in /  1014.8hPa WSW 11.0mph /  17.7km/h 21.0mph /  33.8km/h 61% 0.00in /  0mm
16:55 57.7 °F /  14.3 °C 44.3 °F /  6.8 °C 29.98in /  1015.1hPa WSW 11.0mph /  17.7km/h 21.0mph /  33.8km/h 61% 0.00in /  0mm
17:00 58.1 °F /  14.5 °C 44.3 °F /  6.8 °C 29.97in /  1014.8hPa WSW 10.0mph /  16.1km/h 22.0mph /  35.4km/h 60% 0.00in /  0mm
17:05 57.8 °F /  14.3 °C 44.0 °F /  6.7 °C 29.97in /  1014.8hPa WSW 9.0mph /  14.5km/h 22.0mph /  35.4km/h 60% 0.00in /  0mm
17:10 58.3 °F /  14.6 °C 43.6 °F /  6.4 °C 29.97in /  1014.8hPa WSW 8.0mph /  12.9km/h 19.0mph /  30.6km/h 58% 0.00in /  0mm
17:15 57.8 °F /  14.3 °C 43.6 °F /  6.4 °C 29.97in /  1014.8hPa West 12.0mph /  19.3km/h 18.0mph /  29km/h 59% 0.00in /  0mm
17:20 57.6 °F /  14.2 °C 43.4 °F /  6.3 °C 29.97in /  1014.8hPa WNW 7.0mph /  11.3km/h 21.0mph /  33.8km/h 59% 0.00in /  0mm
17:25 57.4 °F /  14.1 °C 43.6 °F /  6.4 °C 29.97in /  1014.8hPa WSW 10.0mph /  16.1km/h 19.0mph /  30.6km/h 60% 0.00in /  0mm
17:30 57.2 °F /  14 °C 43.9 °F /  6.6 °C 29.97in /  1014.8hPa WSW 6.0mph /  9.7km/h 16.0mph /  25.7km/h 61% 0.00in /  0mm
17:35 57.2 °F /  14 °C 43.4 °F /  6.3 °C 29.97in /  1014.8hPa WSW 7.0mph /  11.3km/h 19.0mph /  30.6km/h 60% 0.00in /  0mm
17:40 57.5 °F /  14.2 °C 44.6 °F /  7 °C 29.97in /  1014.8hPa WSW 9.0mph /  14.5km/h 16.0mph /  25.7km/h 62% 0.00in /  0mm
17:45 57.5 °F /  14.2 °C 44.1 °F /  6.7 °C 29.98in /  1015.1hPa WSW 8.0mph /  12.9km/h 17.0mph /  27.4km/h 61% 0.00in /  0mm
17:50 57.5 °F /  14.2 °C 45.4 °F /  7.4 °C 29.98in /  1015.1hPa WSW 8.0mph /  12.9km/h 17.0mph /  27.4km/h 64% 0.00in /  0mm
17:55 57.2 °F /  14 °C 44.3 °F /  6.8 °C 29.98in /  1015.1hPa WSW 8.0mph /  12.9km/h 17.0mph /  27.4km/h 62% 0.00in /  0mm
18:00 56.8 °F /  13.8 °C 44.7 °F /  7.1 °C 29.98in /  1015.1hPa SW 13.0mph /  20.9km/h 16.0mph /  25.7km/h 64% 0.00in /  0mm
18:05 56.4 °F /  13.6 °C 44.8 °F /  7.1 °C 29.98in /  1015.1hPa WSW 8.0mph /  12.9km/h 14.0mph /  22.5km/h 65% 0.00in /  0mm
18:10 56.5 °F /  13.6 °C 44.9 °F /  7.2 °C 29.98in /  1015.1hPa SW 6.0mph /  9.7km/h 14.0mph /  22.5km/h 65% 0.00in /  0mm
18:15 56.4 °F /  13.6 °C 44.8 °F /  7.1 °C 29.98in /  1015.1hPa WSW 8.0mph /  12.9km/h 19.0mph /  30.6km/h 65% 0.00in /  0mm
18:20 56.2 °F /  13.4 °C 45.0 °F /  7.2 °C 29.98in /  1015.1hPa WSW 8.0mph /  12.9km/h 19.0mph /  30.6km/h 66% 0.00in /  0mm
18:25 56.2 °F /  13.4 °C 44.6 °F /  7 °C 29.98in /  1015.1hPa WSW 8.0mph /  12.9km/h 18.0mph /  29km/h 65% 0.00in /  0mm
18:30 56.2 °F /  13.4 °C 44.6 °F /  7 °C 29.98in /  1015.1hPa West 6.0mph /  9.7km/h 19.0mph /  30.6km/h 65% 0.00in /  0mm
18:35 55.8 °F /  13.2 °C 44.6 °F /  7 °C 29.98in /  1015.1hPa SW 6.0mph /  9.7km/h 14.0mph /  22.5km/h 66% 0.00in /  0mm
18:40 55.7 °F /  13.2 °C 44.5 °F /  6.9 °C 29.98in /  1015.1hPa West 2.0mph /  3.2km/h 15.0mph /  24.1km/h 66% 0.00in /  0mm
18:45 55.9 °F /  13.3 °C 45.1 °F /  7.3 °C 29.98in /  1015.1hPa WSW 7.0mph /  11.3km/h 16.0mph /  25.7km/h 67% 0.00in /  0mm
18:50 55.7 °F /  13.2 °C 44.5 °F /  6.9 °C 29.98in /  1015.1hPa WSW 8.0mph /  12.9km/h 18.0mph /  29km/h 66% 0.00in /  0mm
18:55 55.7 °F /  13.2 °C 44.9 °F /  7.2 °C 29.99in /  1015.5hPa WSW 10.0mph /  16.1km/h 13.0mph /  20.9km/h 67% 0.00in /  0mm
19:00 55.4 °F /  13 °C 44.6 °F /  7 °C 29.99in /  1015.5hPa West 10.0mph /  16.1km/h 21.0mph /  33.8km/h 67% 0.00in /  0mm
19:05 55.5 °F /  13.1 °C 44.7 °F /  7.1 °C 29.99in /  1015.5hPa WSW 8.0mph /  12.9km/h 21.0mph /  33.8km/h 67% 0.00in /  0mm
19:10 55.5 °F /  13.1 °C 44.7 °F /  7.1 °C 29.99in /  1015.5hPa WSW 7.0mph /  11.3km/h 15.0mph /  24.1km/h 67% 0.00in /  0mm
19:15 55.4 °F /  13 °C 44.6 °F /  7 °C 29.99in /  1015.5hPa WSW 6.0mph /  9.7km/h 13.0mph /  20.9km/h 67% 0.00in /  0mm
19:20 55.5 °F /  13.1 °C 44.7 °F /  7.1 °C 29.99in /  1015.5hPa WSW 5.0mph /  8km/h 15.0mph /  24.1km/h 67% 0.00in /  0mm
19:25 55.6 °F /  13.1 °C 44.8 °F /  7.1 °C 29.99in /  1015.5hPa WSW 6.0mph /  9.7km/h 15.0mph /  24.1km/h 67% 0.00in /  0mm
19:30 55.4 °F /  13 °C 44.6 °F /  7 °C 29.99in /  1015.5hPa SW 7.0mph /  11.3km/h 13.0mph /  20.9km/h 67% 0.00in /  0mm
19:35 55.3 °F /  12.9 °C 44.5 °F /  6.9 °C 29.99in /  1015.5hPa WSW 5.0mph /  8km/h 11.0mph /  17.7km/h 67% 0.00in /  0mm
19:40 55.1 °F /  12.8 °C 44.7 °F /  7.1 °C 29.99in /  1015.5hPa WSW 5.0mph /  8km/h 11.0mph /  17.7km/h 68% 0.00in /  0mm
19:45 55.0 °F /  12.8 °C 44.6 °F /  7 °C 29.99in /  1015.5hPa SSW 4.0mph /  6.4km/h 12.0mph /  19.3km/h 68% 0.00in /  0mm
19:50 55.0 °F /  12.8 °C 44.6 °F /  7 °C 29.99in /  1015.5hPa SW 3.0mph /  4.8km/h 10.0mph /  16.1km/h 68% 0.00in /  0mm
19:55 54.9 °F /  12.7 °C 44.5 °F /  6.9 °C 29.99in /  1015.5hPa WSW 3.0mph /  4.8km/h 10.0mph /  16.1km/h 68% 0.00in /  0mm
20:00 54.9 °F /  12.7 °C 44.5 °F /  6.9 °C 29.99in /  1015.5hPa SW 6.0mph /  9.7km/h 10.0mph /  16.1km/h 68% 0.00in /  0mm
20:05 54.7 °F /  12.6 °C 44.7 °F /  7.1 °C 29.99in /  1015.5hPa WNW 3.0mph /  4.8km/h 10.0mph /  16.1km/h 69% 0.00in /  0mm
20:10 54.5 °F /  12.5 °C 44.5 °F /  6.9 °C 29.99in /  1015.5hPa SW 5.0mph /  8km/h 12.0mph /  19.3km/h 69% 0.00in /  0mm
20:15 54.4 °F /  12.4 °C 44.8 °F /  7.1 °C 29.99in /  1015.5hPa WSW 5.0mph /  8km/h 12.0mph /  19.3km/h 70% 0.00in /  0mm
20:20 54.2 °F /  12.3 °C 44.6 °F /  7 °C 29.99in /  1015.5hPa WSW 5.0mph /  8km/h 9.0mph /  14.5km/h 70% 0.00in /  0mm
20:25 54.1 °F /  12.3 °C 44.5 °F /  6.9 °C 29.99in /  1015.5hPa WSW 4.0mph /  6.4km/h 9.0mph /  14.5km/h 70% 0.00in /  0mm
20:30 53.9 °F /  12.2 °C 44.7 °F /  7.1 °C 29.99in /  1015.5hPa SW 3.0mph /  4.8km/h 5.0mph /  8km/h 71% 0.00in /  0mm
20:35 53.7 °F /  12.1 °C 44.5 °F /  6.9 °C 29.99in /  1015.5hPa SSW 3.0mph /  4.8km/h 8.0mph /  12.9km/h 71% 0.00in /  0mm
20:40 53.6 °F /  12 °C 44.8 °F /  7.1 °C 29.99in /  1015.5hPa West 5.0mph /  8km/h 8.0mph /  12.9km/h 72% 0.00in /  0mm
20:45 53.4 °F /  11.9 °C 44.6 °F /  7 °C 29.99in /  1015.5hPa WSW 4.0mph /  6.4km/h 8.0mph /  12.9km/h 72% 0.00in /  0mm
20:50 53.2 °F /  11.8 °C 44.8 °F /  7.1 °C 29.99in /  1015.5hPa WSW 3.0mph /  4.8km/h 7.0mph /  11.3km/h 73% 0.00in /  0mm
20:55 53.1 °F /  11.7 °C 44.7 °F /  7.1 °C 29.99in /  1015.5hPa WSW 3.0mph /  4.8km/h 6.0mph /  9.7km/h 73% 0.00in /  0mm
21:00 53.0 °F /  11.7 °C 44.9 °F /  7.2 °C 29.99in /  1015.5hPa SW 5.0mph /  8km/h 7.0mph /  11.3km/h 74% 0.00in /  0mm
21:05 53.1 °F /  11.7 °C 45.0 °F /  7.2 °C 29.99in /  1015.5hPa WSW 1.0mph /  1.6km/h 7.0mph /  11.3km/h 74% 0.00in /  0mm
21:10 53.1 °F /  11.7 °C 45.0 °F /  7.2 °C 29.99in /  1015.5hPa WSW 3.0mph /  4.8km/h 7.0mph /  11.3km/h 74% 0.00in /  0mm
21:15 52.8 °F /  11.6 °C 44.7 °F /  7.1 °C 29.99in /  1015.5hPa WSW 3.0mph /  4.8km/h 6.0mph /  9.7km/h 74% 0.00in /  0mm
21:20 52.8 °F /  11.6 °C 44.7 °F /  7.1 °C 29.99in /  1015.5hPa WSW 2.0mph /  3.2km/h 5.0mph /  8km/h 74% 0.00in /  0mm
21:25 52.8 °F /  11.6 °C 44.7 °F /  7.1 °C 29.99in /  1015.5hPa SW 2.0mph /  3.2km/h 6.0mph /  9.7km/h 74% 0.00in /  0mm
21:30 52.8 °F /  11.6 °C 44.7 °F /  7.1 °C 29.99in /  1015.5hPa SW 2.0mph /  3.2km/h 6.0mph /  9.7km/h 74% 0.00in /  0mm
21:35 52.4 °F /  11.3 °C 44.7 °F /  7.1 °C 29.99in /  1015.5hPa SW 1.0mph /  1.6km/h 4.0mph /  6.4km/h 75% 0.00in /  0mm
21:40 52.2 °F /  11.2 °C 44.9 °F /  7.2 °C 29.99in /  1015.5hPa SW 2.0mph /  3.2km/h 4.0mph /  6.4km/h 76% 0.00in /  0mm
21:45 52.1 °F /  11.2 °C 44.8 °F /  7.1 °C 29.99in /  1015.5hPa SW 2.0mph /  3.2km/h 4.0mph /  6.4km/h 76% 0.00in /  0mm
21:50 52.0 °F /  11.1 °C 44.7 °F /  7.1 °C 29.99in /  1015.5hPa SW 2.0mph /  3.2km/h 4.0mph /  6.4km/h 76% 0.00in /  0mm
21:55 51.9 °F /  11.1 °C 44.9 °F /  7.2 °C 29.99in /  1015.5hPa SW 1.0mph /  1.6km/h 3.0mph /  4.8km/h 77% 0.00in /  0mm
22:00 51.7 °F /  10.9 °C 44.7 °F /  7.1 °C 29.99in /  1015.5hPa SW 1.0mph /  1.6km/h 5.0mph /  8km/h 77% 0.00in /  0mm
22:05 52.1 °F /  11.2 °C 45.1 °F /  7.3 °C 29.99in /  1015.5hPa SW 2.0mph /  3.2km/h 5.0mph /  8km/h 77% 0.00in /  0mm
22:10 52.2 °F /  11.2 °C 45.2 °F /  7.3 °C 29.99in /  1015.5hPa WSW 1.0mph /  1.6km/h 4.0mph /  6.4km/h 77% 0.00in /  0mm
22:15 52.1 °F /  11.2 °C 45.1 °F /  7.3 °C 29.99in /  1015.5hPa Calm   3.0mph /  4.8km/h 77% 0.00in /  0mm
22:20 51.7 °F /  10.9 °C 45.1 °F /  7.3 °C 29.99in /  1015.5hPa Calm   3.0mph /  4.8km/h 78% 0.00in /  0mm
22:25 51.7 °F /  10.9 °C 45.1 °F /  7.3 °C 29.99in /  1015.5hPa Calm   3.0mph /  4.8km/h 78% 0.00in /  0mm
22:30 51.9 °F /  11.1 °C 45.3 °F /  7.4 °C 29.99in /  1015.5hPa Calm   4.0mph /  6.4km/h 78% 0.00in /  0mm
22:35 51.8 °F /  11 °C 45.2 °F /  7.3 °C 29.98in /  1015.1hPa Calm   3.0mph /  4.8km/h 78% 0.00in /  0mm
22:40 51.8 °F /  11 °C 45.2 °F /  7.3 °C 29.98in /  1015.1hPa Calm   3.0mph /  4.8km/h 78% 0.00in /  0mm
22:45 51.8 °F /  11 °C 45.2 °F /  7.3 °C 29.99in /  1015.5hPa Calm   3.0mph /  4.8km/h 78% 0.00in /  0mm
22:50 51.9 °F /  11.1 °C 44.9 °F /  7.2 °C 29.98in /  1015.1hPa Calm   3.0mph /  4.8km/h 77% 0.00in /  0mm
22:55 51.6 °F /  10.9 °C 45.0 °F /  7.2 °C 29.99in /  1015.5hPa WSW 1.0mph /  1.6km/h 3.0mph /  4.8km/h 78% 0.00in /  0mm
23:00 51.5 °F /  10.8 °C 44.9 °F /  7.2 °C 29.99in /  1015.5hPa WSW 1.0mph /  1.6km/h 3.0mph /  4.8km/h 78% 0.00in /  0mm
23:05 51.5 °F /  10.8 °C 44.9 °F /  7.2 °C 29.98in /  1015.1hPa WSW 1.0mph /  1.6km/h 3.0mph /  4.8km/h 78% 0.00in /  0mm
23:10 51.5 °F /  10.8 °C 44.9 °F /  7.2 °C 29.99in /  1015.5hPa WSW 1.0mph /  1.6km/h 2.0mph /  3.2km/h 78% 0.00in /  0mm
23:20 51.8 °F /  11 °C 44.8 °F /  7.1 °C 29.98in /  1015.1hPa Calm   2.0mph /  3.2km/h 77% 0.00in /  0mm
23:25 51.4 °F /  10.8 °C 44.8 °F /  7.1 °C 29.98in /  1015.1hPa Calm     78% 0.00in /  0mm
23:30 51.2 °F /  10.7 °C 44.6 °F /  7 °C 29.98in /  1015.1hPa Calm     78% 0.00in /  0mm
23:35 50.8 °F /  10.4 °C 44.2 °F /  6.8 °C 29.98in /  1015.1hPa Calm     78% 0.00in /  0mm
23:40 50.4 °F /  10.2 °C 44.1 °F /  6.7 °C 29.98in /  1015.1hPa Calm     79% 0.00in /  0mm
23:45 50.1 °F /  10.1 °C 44.2 °F /  6.8 °C 29.98in /  1015.1hPa Calm     80% 0.00in /  0mm
23:50 50.1 °F /  10.1 °C 43.8 °F /  6.6 °C 29.98in /  1015.1hPa Calm     79% 0.00in /  0mm
23:55 50.0 °F /  10 °C 43.7 °F /  6.5 °C 29.98in /  1015.1hPa Calm     79% 0.00in /  0mm
Buffalo, New York, USA
Compliments of Weather Underground - 2.5 mb